Time;durP1;ratioP1;P1;durP2;ratioP2;P2;SDS_P1;SDS_P2;PMS_P1;PMS_P2;Temp;Humidity;BMP_temperature;BMP_pressure;BME280_temperature;BME280_humidity;BME280_pressure;Samples;Min_cycle;Max_cycle;Signal;HPM_P1;HPM_P2
2024/01/06 00:01:17;;;;;;;8.55;7.38;;;12.90;96.70;;;;;;4977333;28;20747;-74
2024/01/06 00:03:55;;;;;;;10.52;8.35;;;12.90;96.70;;;;;;5021333;28;20059;-75
2024/01/06 00:10:54;;;;;;;8.05;6.82;;;12.90;96.70;;;;;;4982510;28;20125;-74
2024/01/06 00:13:31;;;;;;;11.27;8.02;;;12.80;96.70;;;;;;4998499;28;20061;-75
2024/01/06 00:16:09;;;;;;;11.38;8.25;;;12.90;96.70;;;;;;5009836;28;20060;-75
2024/01/06 00:18:39;;;;;;;11.30;7.05;;;12.80;96.70;;;;;;5002371;28;20053;-74
2024/01/06 00:21:09;;;;;;;14.70;7.82;;;12.90;96.70;;;;;;5026592;28;20079;-75
2024/01/06 00:23:45;;;;;;;9.45;7.35;;;12.80;96.70;;;;;;5010764;28;20134;-74
2024/01/06 00:26:34;;;;;;;11.45;7.63;;;12.90;96.70;;;;;;5029666;28;20057;-75
2024/01/06 00:29:08;;;;;;;8.20;6.90;;;12.80;96.70;;;;;;5010560;28;20061;-75
2024/01/06 00:31:52;;;;;;;10.93;8.05;;;12.80;96.70;;;;;;5024543;28;20504;-75
2024/01/06 00:34:24;;;;;;;8.75;7.28;;;12.80;96.70;;;;;;5058138;28;20053;-75
2024/01/06 00:37:00;;;;;;;13.53;7.63;;;12.80;96.70;;;;;;5003027;28;20151;-75
2024/01/06 00:39:44;;;;;;;13.48;6.85;;;12.80;96.70;;;;;;4996041;28;20057;-75
2024/01/06 00:42:13;;;;;;;10.35;7.13;;;12.80;96.70;;;;;;5015676;28;20064;-75
2024/01/06 00:44:46;;;;;;;9.63;7.90;;;12.80;96.70;;;;;;4998600;28;20076;-75
2024/01/06 00:47:22;;;;;;;11.15;8.13;;;12.80;96.70;;;;;;4989005;28;20057;-74
2024/01/06 00:50:28;;;;;;;8.60;7.22;;;12.80;96.70;;;;;;5019987;28;20536;-74
2024/01/06 00:53:41;;;;;;;11.95;7.47;;;12.80;96.70;;;;;;5013279;28;20106;-74
2024/01/06 00:56:10;;;;;;;7.95;6.80;;;12.70;96.70;;;;;;4986999;28;20059;-74
2024/01/06 00:58:39;;;;;;;10.13;7.38;;;12.70;96.70;;;;;;4995622;28;20145;-74
2024/01/06 01:01:14;;;;;;;9.85;7.05;;;12.70;96.70;;;;;;5026904;28;20049;-75
2024/01/06 01:03:46;;;;;;;8.75;6.55;;;12.70;96.70;;;;;;5008255;28;20050;-75
2024/01/06 01:06:20;;;;;;;11.07;6.80;;;12.70;96.70;;;;;;5037589;28;20056;-74
2024/01/06 01:08:50;;;;;;;9.27;6.57;;;12.80;96.70;;;;;;5020036;28;20061;-74
2024/01/06 01:11:19;;;;;;;9.88;6.18;;;12.80;96.70;;;;;;5003637;28;20049;-75
2024/01/06 01:13:48;;;;;;;9.07;5.95;;;12.80;96.70;;;;;;5015974;28;20053;-74
2024/01/06 01:16:24;;;;;;;8.02;5.30;;;12.80;96.70;;;;;;5019167;28;20069;-74
2024/01/06 01:18:53;;;;;;;9.10;5.57;;;12.80;96.70;;;;;;5002788;28;20064;-75
2024/01/06 01:21:22;;;;;;;6.13;4.40;;;12.90;96.70;;;;;;5010491;28;20060;-75
2024/01/06 01:23:52;;;;;;;7.55;5.18;;;12.90;96.70;;;;;;5016953;28;20863;-74
2024/01/06 01:26:21;;;;;;;6.22;4.80;;;12.90;96.70;;;;;;5012653;28;20049;-74
2024/01/06 01:28:50;;;;;;;7.80;4.65;;;12.90;96.70;;;;;;4995695;28;20076;-74
2024/01/06 01:31:18;;;;;;;6.13;4.70;;;12.90;96.70;;;;;;5003348;28;20445;-75
2024/01/06 01:33:50;;;;;;;7.15;4.38;;;12.90;96.70;;;;;;4993293;28;20060;-75
2024/01/06 01:36:21;;;;;;;8.75;4.70;;;12.90;96.70;;;;;;5001914;28;20057;-74
2024/01/06 01:38:50;;;;;;;8.50;4.43;;;12.90;96.70;;;;;;5005397;28;20061;-75
2024/01/06 01:41:19;;;;;;;7.28;4.28;;;12.90;96.70;;;;;;4994173;28;20932;-74
2024/01/06 01:43:57;;;;;;;5.95;3.92;;;12.90;96.70;;;;;;5000088;28;20054;-75
2024/01/06 01:46:36;;;;;;;5.18;3.33;;;12.90;96.70;;;;;;4988895;28;20059;-76
2024/01/06 01:49:09;;;;;;;6.75;3.47;;;12.90;96.70;;;;;;5011932;28;20049;-75
2024/01/06 01:51:39;;;;;;;5.93;3.50;;;12.90;96.70;;;;;;5001368;28;20537;-74
2024/01/06 01:54:08;;;;;;;4.88;3.10;;;12.90;96.70;;;;;;5010718;28;20053;-75
2024/01/06 01:56:39;;;;;;;6.25;3.28;;;12.90;96.70;;;;;;5010430;28;20058;-75
2024/01/06 01:59:27;;;;;;;6.55;3.17;;;12.90;96.70;;;;;;5011385;28;20084;-75
2024/01/06 02:01:56;;;;;;;5.32;3.15;;;12.90;96.70;;;;;;5006309;28;20057;-75
2024/01/06 02:04:26;;;;;;;6.43;3.58;;;12.90;96.70;;;;;;5008098;28;20056;-74
2024/01/06 02:06:55;;;;;;;8.20;3.95;;;12.90;96.70;;;;;;4999381;28;20140;-75
2024/01/06 02:09:27;;;;;;;7.55;3.08;;;12.90;96.70;;;;;;5023610;28;20088;-75
2024/01/06 02:11:58;;;;;;;4.75;3.05;;;12.90;96.70;;;;;;5018503;28;20144;-75
2024/01/06 02:14:29;;;;;;;5.45;3.13;;;12.90;96.70;;;;;;5005187;28;20057;-75
2024/01/06 02:16:58;;;;;;;4.13;2.97;;;13.00;96.70;;;;;;5007938;28;20053;-74
2024/01/06 02:19:32;;;;;;;7.53;3.72;;;13.00;96.70;;;;;;4996662;28;20132;-75
2024/01/06 02:22:03;;;;;;;4.82;3.08;;;13.00;96.70;;;;;;5013632;28;20512;-75
2024/01/06 02:24:32;;;;;;;5.10;2.90;;;13.00;96.70;;;;;;5004752;28;20060;-75
2024/01/06 02:27:01;;;;;;;5.63;3.05;;;13.00;96.70;;;;;;5015809;28;20061;-75
2024/01/06 02:29:30;;;;;;;5.60;3.05;;;13.00;96.70;;;;;;4999088;28;20057;-74
2024/01/06 02:31:59;;;;;;;4.20;2.97;;;13.00;96.70;;;;;;5009738;28;20061;-74
2024/01/06 02:34:29;;;;;;;6.15;3.33;;;13.00;96.70;;;;;;5023113;28;20057;-73
2024/01/06 02:37:18;;;;;;;6.38;3.20;;;12.90;96.70;;;;;;5007869;28;20053;-74
2024/01/06 02:39:47;;;;;;;5.28;3.35;;;12.90;96.70;;;;;;5018771;28;20115;-74
2024/01/06 02:42:16;;;;;;;6.68;3.15;;;12.90;96.70;;;;;;5012295;28;20060;-74
2024/01/06 02:44:48;;;;;;;7.63;3.03;;;13.00;96.70;;;;;;5009755;28;20049;-73
2024/01/06 02:47:26;;;;;;;6.68;3.42;;;13.00;96.70;;;;;;5004109;28;20057;-74
2024/01/06 02:49:56;;;;;;;7.85;3.58;;;13.00;96.70;;;;;;5003918;28;20190;-75
2024/01/06 02:52:26;;;;;;;5.72;3.47;;;13.00;96.70;;;;;;5012637;28;20144;-74
2024/01/06 02:54:55;;;;;;;6.88;3.35;;;12.90;96.70;;;;;;5016730;28;20533;-74
2024/01/06 02:57:28;;;;;;;7.47;3.35;;;12.90;96.70;;;;;;5020944;28;20061;-74
2024/01/06 02:59:58;;;;;;;5.63;3.63;;;12.90;96.70;;;;;;5013438;28;20053;-73
2024/01/06 03:02:29;;;;;;;9.15;3.63;;;12.90;96.70;;;;;;5021544;28;20068;-75
2024/01/06 03:04:59;;;;;;;6.60;2.88;;;12.90;96.70;;;;;;5016995;28;20057;-74
2024/01/06 03:07:33;;;;;;;4.50;3.30;;;12.90;96.70;;;;;;5003602;28;20124;-75
2024/01/06 03:10:02;;;;;;;5.28;2.80;;;12.90;96.70;;;;;;5025893;28;20068;-75
2024/01/06 03:12:32;;;;;;;6.68;3.38;;;12.90;96.70;;;;;;5013218;28;20115;-74
2024/01/06 03:15:01;;;;;;;6.47;3.17;;;12.90;96.70;;;;;;5001159;28;20122;-74
2024/01/06 03:17:33;;;;;;;4.78;2.90;;;12.90;96.70;;;;;;5033483;28;20325;-75
2024/01/06 03:20:05;;;;;;;7.70;3.22;;;12.90;96.70;;;;;;4994924;28;20068;-75
2024/01/06 03:22:38;;;;;;;6.35;3.20;;;12.90;96.70;;;;;;4995979;28;20156;-75
2024/01/06 03:25:09;;;;;;;6.22;3.33;;;12.90;96.70;;;;;;5000328;28;20216;-75
2024/01/06 03:27:37;;;;;;;5.00;3.08;;;12.90;96.70;;;;;;5001306;28;20076;-74
2024/01/06 03:30:09;;;;;;;7.15;3.28;;;12.90;96.70;;;;;;5009175;28;20060;-74
2024/01/06 03:32:38;;;;;;;5.45;3.13;;;12.90;96.70;;;;;;5017186;28;20067;-75
2024/01/06 03:35:11;;;;;;;4.88;3.08;;;12.90;96.70;;;;;;5002670;28;20053;-74
2024/01/06 03:37:42;;;;;;;6.22;3.08;;;12.90;96.70;;;;;;5009953;28;20152;-74
2024/01/06 03:44:30;;;;;;;6.03;3.80;;;12.80;96.70;;;;;;4959628;28;20065;-74
2024/01/06 03:46:59;;;;;;;6.57;3.55;;;12.80;96.70;;;;;;4981557;28;20716;-75
2024/01/06 03:49:28;;;;;;;8.10;3.75;;;12.80;96.70;;;;;;4997901;28;20208;-75
2024/01/06 03:52:05;;;;;;;7.05;3.03;;;12.80;96.70;;;;;;5007673;28;21059;-74
2024/01/06 03:54:36;;;;;;;6.63;3.00;;;12.90;96.70;;;;;;5017123;28;20057;-75
2024/01/06 03:57:06;;;;;;;4.10;2.75;;;12.90;96.70;;;;;;4994958;28;20063;-74
2024/01/06 03:59:44;;;;;;;5.78;3.25;;;12.90;96.70;;;;;;4998739;28;20065;-75
2024/01/06 04:02:13;;;;;;;4.90;2.80;;;12.90;96.70;;;;;;5016395;28;20413;-75
2024/01/06 04:05:20;;;;;;;7.07;2.88;;;12.90;96.70;;;;;;5013473;28;20056;-75
2024/01/06 04:07:55;;;;;;;8.35;3.20;;;12.90;96.70;;;;;;4992492;28;20067;-75
2024/01/06 04:10:30;;;;;;;6.05;2.80;;;12.90;96.70;;;;;;5009386;28;20913;-75
2024/01/06 04:12:59;;;;;;;6.65;2.60;;;12.90;96.70;;;;;;5015275;28;20132;-75
2024/01/06 04:15:27;;;;;;;3.85;2.25;;;12.90;96.70;;;;;;5007253;28;20045;-74
2024/01/06 04:18:03;;;;;;;6.22;2.45;;;12.90;96.70;;;;;;4991075;28;20085;-75
2024/01/06 04:20:34;;;;;;;5.00;2.53;;;12.90;96.70;;;;;;5007529;28;20061;-75
2024/01/06 04:23:03;;;;;;;3.83;2.00;;;12.90;96.70;;;;;;4990895;28;20146;-75
2024/01/06 04:25:34;;;;;;;7.45;2.28;;;12.90;96.70;;;;;;4987052;28;20134;-74
2024/01/06 04:28:03;;;;;;;5.50;1.80;;;12.90;96.70;;;;;;5014251;28;20049;-75
2024/01/06 04:30:32;;;;;;;5.55;2.55;;;12.90;96.70;;;;;;4994498;28;20053;-74
2024/01/06 04:33:03;;;;;;;5.40;2.05;;;12.90;96.70;;;;;;5006267;28;20541;-74
2024/01/06 04:35:36;;;;;;;6.15;2.47;;;12.90;96.70;;;;;;5013649;28;20287;-74
2024/01/06 04:38:31;;;;;;;9.27;2.25;;;12.90;96.70;;;;;;5010838;28;20054;-75
2024/01/06 04:41:05;;;;;;;6.72;2.20;;;12.90;96.70;;;;;;5010185;28;20168;-75
2024/01/06 04:43:43;;;;;;;8.55;2.65;;;12.90;96.70;;;;;;5016784;28;20132;-74
2024/01/06 04:46:13;;;;;;;5.35;1.88;;;12.90;96.70;;;;;;5027620;28;20518;-74
2024/01/06 04:48:43;;;;;;;8.40;1.98;;;12.90;96.70;;;;;;5017907;28;20057;-74
2024/01/06 04:51:13;;;;;;;4.18;1.70;;;12.90;96.70;;;;;;5013598;28;20068;-74
2024/01/06 04:53:53;;;;;;;6.72;2.60;;;12.90;96.70;;;;;;5007920;28;20188;-74
2024/01/06 04:56:39;;;;;;;4.95;2.33;;;12.90;96.70;;;;;;4994772;28;20065;-75
2024/01/06 04:59:11;;;;;;;4.60;2.55;;;12.90;96.70;;;;;;5009464;28;20057;-75
2024/01/06 05:02:29;;;;;;;5.75;2.53;;;12.90;96.70;;;;;;5025012;28;20145;-75
2024/01/06 05:05:53;;;;;;;;;;;;;;;;;;;;;
2024/01/06 05:08:46;;;;;;;4.50;2.15;;;12.90;96.70;;;;;;5053784;28;20102;-75
2024/01/06 05:11:19;;;;;;;4.38;1.73;;;12.90;96.70;;;;;;5017324;28;20059;-75
2024/01/06 05:13:50;;;;;;;3.78;2.05;;;12.90;96.70;;;;;;5020453;28;20056;-75
2024/01/06 05:16:20;;;;;;;5.28;1.88;;;12.90;96.70;;;;;;5034871;28;20694;-75
2024/01/06 05:18:49;;;;;;;5.93;1.70;;;12.90;96.70;;;;;;5020444;28;20057;-75
2024/01/06 05:21:19;;;;;;;5.97;1.90;;;12.90;96.70;;;;;;5038043;28;20049;-75
2024/01/06 05:23:48;;;;;;;3.90;1.90;;;13.00;96.70;;;;;;5022906;28;20063;-75
2024/01/06 05:26:17;;;;;;;5.90;1.80;;;12.90;96.70;;;;;;5034754;28;20059;-75
2024/01/06 05:29:14;;;;;;;6.22;2.13;;;12.90;96.70;;;;;;5000966;28;20155;-74
2024/01/06 05:31:43;;;;;;;5.53;1.85;;;12.90;96.70;;;;;;4985899;28;20165;-75
2024/01/06 05:34:15;;;;;;;4.80;1.95;;;12.90;96.70;;;;;;4978972;28;20047;-74
2024/01/06 05:36:45;;;;;;;5.80;2.05;;;12.90;96.70;;;;;;4977355;28;20096;-74
2024/01/06 05:39:17;;;;;;;10.77;2.80;;;13.00;96.70;;;;;;4954384;28;20062;-74
2024/01/06 05:41:47;;;;;;;5.43;1.92;;;12.90;96.70;;;;;;4979807;28;20062;-74
2024/01/06 05:44:19;;;;;;;5.85;2.83;;;13.00;96.70;;;;;;4990978;28;20139;-74
2024/01/06 05:46:48;;;;;;;6.10;2.50;;;12.90;96.70;;;;;;4992593;28;20090;-75
2024/01/06 05:49:18;;;;;;;4.03;2.03;;;12.90;96.70;;;;;;4975223;28;20504;-74
2024/01/06 05:51:47;;;;;;;4.38;2.03;;;12.90;96.70;;;;;;4989658;28;20062;-74
2024/01/06 05:54:18;;;;;;;5.75;2.05;;;12.90;96.70;;;;;;4985208;28;20427;-74
2024/01/06 05:57:53;;;;;;;6.30;2.30;;;12.90;96.70;;;;;;4987896;28;20045;-75
2024/01/06 06:00:24;;;;;;;5.97;2.25;;;12.90;96.70;;;;;;4987608;28;20106;-74
2024/01/06 06:02:54;;;;;;;5.35;2.35;;;12.90;96.70;;;;;;4975123;28;20053;-74
2024/01/06 06:06:12;;;;;;;6.78;2.55;;;12.90;96.70;;;;;;4994049;28;20061;-75
2024/01/06 06:08:42;;;;;;;6.75;2.55;;;12.90;96.70;;;;;;5036071;28;20060;-74
2024/01/06 06:11:14;;;;;;;6.93;2.25;;;12.90;96.70;;;;;;5028066;28;20505;-73
2024/01/06 06:13:44;;;;;;;6.05;2.40;;;12.90;96.70;;;;;;5029071;28;20134;-74
2024/01/06 06:16:15;;;;;;;7.38;2.33;;;12.90;96.70;;;;;;5032033;28;20049;-74
2024/01/06 06:18:52;;;;;;;4.63;2.25;;;12.90;96.70;;;;;;5034304;28;20060;-74
2024/01/06 06:22:41;;;;;;;5.20;2.35;;;12.90;96.70;;;;;;4931382;28;20696;-74
2024/01/06 06:25:10;;;;;;;5.57;2.47;;;12.90;96.70;;;;;;4950174;28;20051;-75
2024/01/06 06:27:39;;;;;;;5.25;2.25;;;12.90;96.70;;;;;;4947508;28;20202;-74
2024/01/06 06:30:09;;;;;;;6.97;1.90;;;12.90;96.70;;;;;;4945608;28;20071;-74
2024/01/06 06:33:13;;;;;;;4.82;2.08;;;12.90;96.70;;;;;;4945832;28;20066;-74
2024/01/06 06:35:47;;;;;;;3.58;1.77;;;12.90;96.70;;;;;;4950607;28;20559;-75
2024/01/06 06:38:15;;;;;;;4.78;2.42;;;12.90;96.70;;;;;;4946697;28;20450;-74
2024/01/06 06:41:36;;;;;;;7.13;2.17;;;12.90;96.70;;;;;;4946068;28;20058;-74
2024/01/06 06:44:05;;;;;;;4.30;1.92;;;12.90;96.70;;;;;;4945549;28;20090;-74
2024/01/06 06:46:33;;;;;;;7.68;2.13;;;12.90;96.70;;;;;;4951974;28;20167;-74
2024/01/06 06:49:05;;;;;;;7.38;2.50;;;12.80;96.70;;;;;;4945570;28;20066;-74
2024/01/06 06:51:34;;;;;;;4.78;2.08;;;12.80;96.70;;;;;;4965135;28;20578;-74
2024/01/06 06:58:08;;;;;;;4.18;2.40;;;12.80;96.70;;;;;;4964614;28;20572;-74
2024/01/06 07:00:37;;;;;;;7.28;3.22;;;12.80;96.70;;;;;;4977574;28;20676;-75
2024/01/06 07:03:06;;;;;;;6.03;2.47;;;12.80;96.70;;;;;;5025990;28;20153;-74
2024/01/06 07:08:41;;;;;;;5.50;2.38;;;12.80;96.70;;;;;;5039108;28;20088;-75
2024/01/06 07:11:11;;;;;;;4.78;2.20;;;12.80;96.70;;;;;;5026928;28;20053;-74
2024/01/06 07:13:40;;;;;;;4.43;2.35;;;12.80;96.70;;;;;;5030880;28;20057;-74
2024/01/06 07:23:26;;;;;;;7.10;2.80;;;12.80;96.70;;;;;;5043454;28;20721;-75
2024/01/06 07:25:57;;;;;;;5.47;2.73;;;12.80;96.70;;;;;;5028607;28;20064;-75
2024/01/06 07:28:55;;;;;;;3.58;2.20;;;12.80;96.70;;;;;;5041240;28;20283;-75
2024/01/06 07:31:24;;;;;;;3.55;2.22;;;12.80;96.70;;;;;;5035998;28;20110;-75
2024/01/06 07:33:53;;;;;;;5.30;2.40;;;12.80;96.70;;;;;;5046572;28;20562;-75
2024/01/06 07:36:36;;;;;;;3.95;2.20;;;12.90;96.70;;;;;;5029526;28;20052;-75
2024/01/06 07:39:31;;;;;;;5.00;2.40;;;12.90;96.70;;;;;;5037777;28;20595;-75
2024/01/06 07:42:04;;;;;;;4.85;2.53;;;12.80;96.70;;;;;;5030569;28;20176;-74
2024/01/06 07:44:37;;;;;;;4.70;2.30;;;12.90;96.70;;;;;;5023060;28;20061;-74
2024/01/06 07:47:06;;;;;;;5.88;3.13;;;12.80;96.70;;;;;;5027929;28;20053;-74
2024/01/06 07:49:34;;;;;;;6.32;2.80;;;12.80;96.70;;;;;;5038131;28;20489;-73
2024/01/06 07:52:03;;;;;;;5.72;3.90;;;12.80;96.70;;;;;;5034387;28;20384;-76
2024/01/06 07:54:33;;;;;;;9.55;5.07;;;12.80;96.70;;;;;;5026076;28;20140;-75
2024/01/06 07:57:02;;;;;;;4.93;2.33;;;12.80;96.70;;;;;;5032980;28;20061;-76
2024/01/06 07:59:30;;;;;;;5.22;2.85;;;12.80;96.70;;;;;;5029090;28;20517;-74
2024/01/06 08:01:58;;;;;;;3.40;2.40;;;12.80;96.70;;;;;;5044038;28;20053;-75
2024/01/06 08:04:27;;;;;;;10.50;2.85;;;12.80;96.70;;;;;;5037920;28;20064;-74
2024/01/06 08:06:55;;;;;;;14.65;4.15;;;12.80;96.70;;;;;;5010087;28;20529;-75
2024/01/06 08:09:24;;;;;;;5.40;2.85;;;12.80;96.70;;;;;;5024675;28;20419;-74
2024/01/06 08:11:54;;;;;;;6.40;2.60;;;12.80;96.70;;;;;;5003126;28;20057;-75
2024/01/06 08:14:22;;;;;;;5.20;2.80;;;12.80;96.70;;;;;;5021177;28;20149;-74
2024/01/06 08:16:50;;;;;;;6.15;2.95;;;12.90;96.70;;;;;;5026681;28;20497;-75
2024/01/06 08:19:19;;;;;;;6.38;2.65;;;12.90;96.70;;;;;;5025320;28;20073;-74
2024/01/06 08:21:47;;;;;;;9.45;3.20;;;12.90;96.70;;;;;;5009534;28;20062;-73
2024/01/06 08:24:16;;;;;;;9.13;2.78;;;12.90;96.70;;;;;;5037477;28;20065;-74
2024/01/06 08:26:44;;;;;;;5.25;2.53;;;12.90;96.70;;;;;;5005678;28;20049;-74
2024/01/06 08:29:16;;;;;;;5.32;2.88;;;12.90;96.70;;;;;;5023924;28;20506;-74
2024/01/06 08:31:44;;;;;;;6.50;3.15;;;13.00;96.70;;;;;;5036228;28;20061;-74
2024/01/06 08:34:14;;;;;;;5.45;2.95;;;13.00;96.70;;;;;;5023118;28;20045;-75
2024/01/06 08:36:42;;;;;;;5.75;3.00;;;13.00;96.70;;;;;;5007402;28;20103;-75
2024/01/06 08:39:12;;;;;;;5.22;3.05;;;13.00;96.70;;;;;;5024206;28;20053;-75
2024/01/06 08:41:41;;;;;;;4.55;2.90;;;13.00;96.70;;;;;;5024212;28;20536;-75
2024/01/06 08:44:10;;;;;;;5.13;3.20;;;13.00;96.70;;;;;;5025012;28;20057;-74
2024/01/06 08:46:40;;;;;;;6.05;3.53;;;13.00;96.70;;;;;;5008027;28;20071;-75
2024/01/06 08:49:09;;;;;;;4.97;3.40;;;13.00;96.70;;;;;;5024969;28;21032;-75
2024/01/06 08:51:37;;;;;;;4.38;2.75;;;13.00;96.70;;;;;;5024662;28;20050;-74
2024/01/06 08:54:06;;;;;;;5.18;3.50;;;13.10;96.70;;;;;;5008187;28;20053;-74
2024/01/06 08:56:35;;;;;;;5.40;3.00;;;13.10;96.70;;;;;;5026735;28;20062;-74
2024/01/06 08:59:03;;;;;;;5.07;3.40;;;13.00;96.70;;;;;;5017506;28;20500;-75
2024/01/06 09:01:31;;;;;;;4.97;2.78;;;13.00;96.70;;;;;;5024698;28;20180;-74
2024/01/06 09:04:02;;;;;;;5.15;3.20;;;13.10;96.70;;;;;;5023155;28;20073;-74
2024/01/06 09:06:31;;;;;;;4.05;2.97;;;13.10;96.70;;;;;;5027774;28;20049;-75
2024/01/06 09:08:59;;;;;;;4.78;2.58;;;13.10;96.70;;;;;;5026579;28;20088;-74
2024/01/06 09:11:28;;;;;;;3.92;3.22;;;13.10;96.70;;;;;;5048154;28;20424;-75
2024/01/06 09:13:56;;;;;;;4.45;3.30;;;13.10;96.70;;;;;;5003293;28;20048;-75
2024/01/06 09:16:25;;;;;;;3.85;2.97;;;13.10;96.70;;;;;;5050498;28;20049;-74
2024/01/06 09:18:53;;;;;;;4.32;3.13;;;13.10;96.70;;;;;;5027725;28;20053;-76
2024/01/06 09:21:24;;;;;;;5.50;4.30;;;13.20;96.70;;;;;;5032395;28;20068;-75
2024/01/06 09:23:52;;;;;;;5.30;4.18;;;13.20;96.70;;;;;;5026060;28;20524;-76
2024/01/06 09:26:20;;;;;;;6.30;4.07;;;13.20;96.70;;;;;;5055285;28;20141;-76
2024/01/06 09:28:48;;;;;;;5.15;4.07;;;13.20;96.70;;;;;;5047978;28;20085;-75
2024/01/06 09:31:19;;;;;;;5.38;4.28;;;13.30;96.70;;;;;;5031572;28;20083;-75
2024/01/06 09:33:49;;;;;;;4.65;3.70;;;13.30;96.70;;;;;;5032777;28;20061;-75
2024/01/06 09:36:18;;;;;;;6.28;3.63;;;13.30;96.70;;;;;;5034268;28;20132;-75
2024/01/06 09:38:49;;;;;;;4.95;3.60;;;13.40;96.70;;;;;;5053784;28;20057;-76
2024/01/06 09:41:17;;;;;;;4.55;3.63;;;13.40;96.70;;;;;;5035118;28;20391;-76
2024/01/06 09:43:46;;;;;;;5.80;4.00;;;13.40;96.70;;;;;;5047062;28;20068;-75
2024/01/06 09:46:21;;;;;;;4.78;4.05;;;13.40;96.70;;;;;;5044209;28;20545;-76
2024/01/06 09:48:56;;;;;;;5.18;3.58;;;13.40;96.70;;;;;;5052827;28;20067;-75
2024/01/06 09:51:26;;;;;;;6.20;3.40;;;13.40;96.70;;;;;;5029811;28;20108;-75
2024/01/06 09:54:00;;;;;;;3.65;2.90;;;13.40;96.70;;;;;;5041291;28;20095;-74
2024/01/06 09:56:30;;;;;;;4.53;3.53;;;13.40;96.70;;;;;;5041105;28;20072;-74
2024/01/06 09:58:58;;;;;;;4.65;4.13;;;13.40;96.70;;;;;;5055202;28;20090;-76
2024/01/06 10:01:31;;;;;;;5.72;3.83;;;13.40;96.70;;;;;;5049829;28;20154;-76
2024/01/06 10:04:03;;;;;;;4.88;3.53;;;13.40;96.70;;;;;;5035014;28;20057;-75
2024/01/06 10:06:32;;;;;;;5.00;3.20;;;13.40;96.70;;;;;;5042103;28;20061;-75
2024/01/06 10:09:04;;;;;;;4.78;4.30;;;13.40;96.70;;;;;;5048854;28;20412;-75
2024/01/06 10:11:35;;;;;;;12.55;10.73;;;13.40;96.70;;;;;;5057997;28;20049;-75
2024/01/06 10:14:04;;;;;;;22.83;18.30;;;13.40;96.70;;;;;;5044269;28;20067;-74
2024/01/06 10:16:35;;;;;;;8.63;7.10;;;13.40;96.70;;;;;;5028907;28;20072;-75
2024/01/06 10:19:04;;;;;;;7.40;5.05;;;13.40;96.70;;;;;;5058628;28;20057;-75
2024/01/06 10:21:33;;;;;;;5.75;5.18;;;13.40;96.70;;;;;;5044246;28;20088;-73
2024/01/06 10:24:23;;;;;;;6.60;5.03;;;13.40;96.70;;;;;;4966203;28;20066;-73
2024/01/06 10:26:52;;;;;;;5.70;4.90;;;13.40;96.70;;;;;;4964724;28;20047;-74
2024/01/06 10:29:21;;;;;;;6.22;5.25;;;13.40;96.70;;;;;;4965421;28;20069;-74
2024/01/06 10:31:50;;;;;;;6.65;4.72;;;13.40;96.70;;;;;;4967117;28;20063;-74
2024/01/06 10:34:22;;;;;;;4.70;3.92;;;13.40;96.70;;;;;;4964570;28;20074;-73
2024/01/06 10:36:54;;;;;;;5.05;3.55;;;13.40;96.70;;;;;;4964314;28;20142;-74
2024/01/06 10:39:28;;;;;;;5.20;3.72;;;13.40;96.70;;;;;;4969396;28;20046;-73
2024/01/06 10:41:58;;;;;;;5.13;3.60;;;13.40;96.70;;;;;;4965099;28;20311;-73
2024/01/06 10:44:28;;;;;;;5.32;3.45;;;13.40;96.70;;;;;;4968292;28;20122;-73
2024/01/06 10:46:59;;;;;;;3.53;2.90;;;13.40;96.70;;;;;;4968009;28;20077;-73
2024/01/06 10:49:30;;;;;;;3.10;2.67;;;13.40;96.70;;;;;;4959274;28;20145;-72
2024/01/06 10:51:59;;;;;;;3.47;2.97;;;13.50;96.70;;;;;;4965639;28;20065;-73
2024/01/06 10:54:32;;;;;;;3.88;2.70;;;13.50;96.70;;;;;;4988234;28;20059;-73
2024/01/06 10:57:03;;;;;;;5.28;3.40;;;13.50;96.70;;;;;;5039728;28;20498;-73
2024/01/06 10:59:34;;;;;;;5.53;2.72;;;13.50;96.70;;;;;;5040819;28;20064;-74
2024/01/06 11:02:03;;;;;;;6.07;2.90;;;13.50;96.70;;;;;;5036005;28;20048;-74
2024/01/06 11:04:32;;;;;;;6.13;2.67;;;13.60;96.70;;;;;;5033613;28;20127;-73
2024/01/06 11:07:01;;;;;;;5.50;4.88;;;13.60;96.70;;;;;;5030609;28;20433;-73
2024/01/06 11:09:34;;;;;;;5.40;3.50;;;13.70;96.70;;;;;;5041530;28;20061;-73
2024/01/06 11:12:03;;;;;;;4.70;3.40;;;13.70;96.70;;;;;;5050572;28;20057;-75
2024/01/06 11:14:37;;;;;;;3.85;3.45;;;13.70;96.70;;;;;;5025817;28;20083;-73
2024/01/06 11:17:05;;;;;;;7.30;5.32;;;13.70;96.70;;;;;;5018480;28;20136;-74
2024/01/06 11:19:45;;;;;;;4.30;3.85;;;13.70;96.70;;;;;;5042954;28;20136;-74
2024/01/06 11:22:23;;;;;;;5.82;3.85;;;13.70;96.70;;;;;;5044214;28;20063;-73
2024/01/06 11:24:56;;;;;;;5.13;3.25;;;13.60;96.70;;;;;;5044176;28;20588;-74
2024/01/06 11:27:28;;;;;;;7.28;4.85;;;13.60;96.70;;;;;;5026069;28;20179;-74
2024/01/06 11:29:59;;;;;;;4.57;3.60;;;13.70;96.70;;;;;;5020979;28;20439;-74
2024/01/06 11:32:30;;;;;;;3.67;3.08;;;13.70;96.70;;;;;;5027639;28;20073;-74
2024/01/06 11:35:08;;;;;;;4.75;2.95;;;13.70;96.70;;;;;;5045265;28;20056;-73
2024/01/06 11:37:51;;;;;;;3.08;2.60;;;13.70;96.70;;;;;;5045584;28;20064;-74
2024/01/06 11:40:37;;;;;;;3.42;2.30;;;13.60;96.70;;;;;;5037941;28;20107;-73
2024/01/06 11:43:09;;;;;;;2.38;1.58;;;13.60;96.70;;;;;;5044366;28;20063;-74
2024/01/06 11:45:42;;;;;;;5.05;2.70;;;13.50;96.70;;;;;;5044682;28;20053;-74
2024/01/06 11:48:12;;;;;;;1.55;1.40;;;13.60;96.70;;;;;;5044791;28;20061;-74
2024/01/06 11:50:41;;;;;;;2.90;1.58;;;13.50;96.70;;;;;;5027279;28;20110;-73
2024/01/06 11:53:10;;;;;;;2.03;1.23;;;13.50;96.70;;;;;;5045576;28;20440;-73
2024/01/06 11:55:42;;;;;;;2.70;1.90;;;13.50;96.70;;;;;;5025750;28;20717;-74
2024/01/06 11:58:11;;;;;;;4.10;2.63;;;13.50;96.70;;;;;;5044612;28;20404;-74
2024/01/06 12:00:40;;;;;;;2.35;1.40;;;13.50;96.70;;;;;;5045042;28;21368;-74
2024/01/06 12:03:15;;;;;;;2.22;1.77;;;13.50;96.70;;;;;;5045629;28;20800;-74
2024/01/06 12:05:44;;;;;;;12.15;9.38;;;13.50;96.70;;;;;;5026504;28;20056;-74
2024/01/06 12:08:13;;;;;;;3.92;1.95;;;13.50;96.70;;;;;;5044717;28;20521;-74
2024/01/06 12:10:43;;;;;;;2.58;1.98;;;13.50;96.70;;;;;;5044482;28;20080;-74
2024/01/06 12:13:14;;;;;;;3.63;1.83;;;13.50;96.70;;;;;;5026650;28;20055;-75
2024/01/06 12:15:47;;;;;;;4.03;2.33;;;13.50;96.70;;;;;;5044637;28;20052;-74
2024/01/06 12:18:16;;;;;;;2.40;1.70;;;13.60;96.70;;;;;;5043901;28;20063;-75
2024/01/06 12:20:45;;;;;;;2.80;1.48;;;13.60;96.70;;;;;;5044565;28;20465;-75
2024/01/06 12:23:24;;;;;;;3.75;1.75;;;13.60;96.70;;;;;;5044283;28;20061;-74
2024/01/06 12:25:55;;;;;;;2.45;1.40;;;13.70;96.70;;;;;;5025990;28;20061;-75
2024/01/06 12:28:24;;;;;;;1.30;1.20;;;13.70;96.70;;;;;;5044575;28;20053;-74
2024/01/06 12:30:53;;;;;;;2.10;1.45;;;13.60;96.70;;;;;;5044394;28;20093;-74
2024/01/06 12:33:23;;;;;;;2.53;1.70;;;13.60;96.70;;;;;;5025466;28;20115;-74
2024/01/06 12:35:51;;;;;;;3.63;1.60;;;13.70;96.70;;;;;;5044773;28;20440;-74
2024/01/06 12:38:20;;;;;;;2.08;1.52;;;13.70;96.70;;;;;;5026463;28;20566;-74
2024/01/06 12:40:50;;;;;;;2.35;1.70;;;13.70;96.70;;;;;;5044818;28;20053;-74
2024/01/06 12:43:20;;;;;;;2.35;1.70;;;13.70;96.70;;;;;;5044462;28;20128;-74
2024/01/06 12:45:52;;;;;;;2.63;1.70;;;13.80;96.70;;;;;;5044012;28;20053;-74
2024/01/06 12:48:21;;;;;;;2.45;1.52;;;13.80;96.70;;;;;;5026106;28;20084;-72
2024/01/06 12:50:50;;;;;;;2.63;1.50;;;13.80;96.70;;;;;;5044362;28;20111;-74
2024/01/06 12:53:19;;;;;;;1.48;1.30;;;13.80;96.70;;;;;;5045040;28;20060;-73
2024/01/06 12:55:47;;;;;;;2.05;1.58;;;13.80;96.70;;;;;;5045371;28;20395;-74
2024/01/06 12:58:16;;;;;;;1.63;1.40;;;13.90;96.70;;;;;;5028485;28;20053;-74
2024/01/06 13:00:48;;;;;;;1.75;1.45;;;13.90;96.70;;;;;;5029925;28;20053;-74
2024/01/06 13:03:19;;;;;;;1.73;1.42;;;13.90;96.70;;;;;;5029776;28;20061;-74
2024/01/06 13:05:49;;;;;;;3.05;1.92;;;13.90;96.70;;;;;;5028894;28;20080;-74
2024/01/06 13:08:17;;;;;;;2.38;1.73;;;13.90;96.70;;;;;;5027795;28;20075;-75
2024/01/06 13:10:47;;;;;;;3.13;2.28;;;13.90;96.70;;;;;;5047564;28;20103;-75
2024/01/06 13:13:15;;;;;;;2.00;1.80;;;13.90;96.70;;;;;;5048368;28;20648;-74
2024/01/06 13:15:46;;;;;;;3.72;2.60;;;13.90;96.70;;;;;;5048604;28;20059;-74
2024/01/06 13:18:16;;;;;;;2.03;1.83;;;13.90;96.70;;;;;;5029497;28;20425;-74
2024/01/06 13:20:45;;;;;;;3.83;2.22;;;13.90;96.70;;;;;;5029559;28;20140;-74
2024/01/06 13:23:15;;;;;;;3.55;2.20;;;13.90;96.70;;;;;;5046861;28;20144;-74
2024/01/06 13:25:44;;;;;;;2.33;1.70;;;13.90;96.70;;;;;;5047596;28;20064;-74
2024/01/06 13:28:12;;;;;;;2.22;1.77;;;13.80;96.70;;;;;;5047360;28;20045;-74
2024/01/06 13:30:42;;;;;;;2.15;1.83;;;13.80;96.70;;;;;;5047473;28;20056;-74
2024/01/06 13:33:14;;;;;;;1.67;1.42;;;13.70;96.70;;;;;;5021376;28;20061;-75
2024/01/06 13:35:45;;;;;;;1.80;1.45;;;13.70;96.70;;;;;;5028914;28;20092;-74
2024/01/06 13:38:16;;;;;;;1.70;1.40;;;13.70;96.70;;;;;;5029226;28;20118;-74
2024/01/06 13:40:45;;;;;;;3.15;1.95;;;13.70;96.70;;;;;;5047554;28;20118;-74